Hauptseite
METAR-TAF:

METAR-TAF

Flughäfen :

Militärflugplatz Mont-de-Marsan

Mont-De-Marsan, Frankreich

Breite: 43-55N, Länge: 000-30W, Höhe: 62 m

Beobachtung

Neuester Wetterbericht von vor 34 Minuten, um 11:00 UTC
Wind 3 kt aus unterschiedlichen Richtungen
Temperatur 26°C
Luftfeuchtigkeit 61%
Luftdruck 1021 hPa
Sichtweite 10 km oder mehr
keine Wolken unter 1500 m und keine Kumulonimbus oder Gewitterwolken

METAR: LFBM 191100Z AUTO VRB03KT CAVOK 26/18 Q1021 NOSIG

Zeit: 13:34 (11:34 UTC)

Prognose

Neuester Wetterbericht von vor 3 Stunden und 34 Minuten, um 08:00 UTC
Gültige Prognose vom 19 um 09 UTC bis 20 um 09 UTC
Wind 3 kt aus unterschiedlichen Richtungen
Sichtweite 10 km oder mehr
Aufgelockert bewölkt in der Höhe von 2500 ft

TAF: LFBM 190800Z 1909/2009 VRB03KT 9999 SCT025

Wetterbeobachtungen und Prognosen von mehr als 4000 Flughäfen (METAR und TAF Bericht).

Die verfügbaren Stationen werden durch gelbe und rote Markierungen auf der Karte dargestellt.

Führen Sie die Maus auf sie, um den Namen der Station zu sehen.

Darauf klicken, um die Beobachtung von Wetterbeobachtungen und Prognosen zu sehen.

Um die Karte zu ändern : klicken Sie auf den grünen Tasten mit einem schwarzen Kreuz Zum Vergrößern, auf den grünen Button mit einem Gedankenstrich zu verkleinern, oder auf die grünen Pfeile für benachbarte Karten.


METAR-TAF: